createdAt,value
2018-02-03T00:00:29.800Z,3.52
2018-02-03T00:01:29.835Z,3.50
2018-02-03T00:02:29.861Z,3.48
2018-02-03T00:03:29.890Z,3.52
2018-02-03T00:04:29.928Z,3.43
2018-02-03T00:05:29.947Z,3.55
2018-02-03T00:06:29.982Z,3.51
2018-02-03T00:07:30.007Z,3.57
2018-02-03T00:08:30.148Z,3.54
2018-02-03T00:09:30.071Z,3.65
2018-02-03T00:10:30.101Z,3.54
2018-02-03T00:11:30.131Z,3.65
2018-02-03T00:12:30.160Z,3.55
2018-02-03T00:13:30.192Z,3.57
2018-02-03T00:14:30.239Z,3.55
2018-02-03T00:15:30.250Z,3.72
2018-02-03T00:16:30.281Z,3.72
2018-02-03T00:17:30.310Z,3.65
2018-02-03T00:18:30.355Z,3.73
2018-02-03T00:19:30.370Z,3.80
2018-02-03T00:20:30.400Z,3.72
2018-02-03T00:21:30.440Z,3.84
2018-02-03T00:22:30.460Z,3.86
2018-02-03T00:23:30.491Z,3.83
2018-02-03T00:24:30.520Z,3.75
2018-02-03T00:25:30.602Z,3.73
2018-02-03T00:26:30.577Z,3.83
2018-02-03T00:27:30.619Z,3.87
2018-02-03T00:28:30.642Z,3.78
2018-02-03T00:29:30.672Z,3.80
2018-02-03T00:30:30.699Z,3.87
2018-02-03T00:31:30.739Z,3.91
2018-02-03T00:32:30.794Z,3.88
2018-02-03T00:33:30.795Z,3.84
2018-02-03T00:34:30.821Z,3.87
2018-02-03T00:35:30.850Z,3.88
2018-02-03T00:36:30.885Z,3.88
2018-02-03T00:37:30.915Z,3.86
2018-02-03T00:38:30.942Z,3.83
2018-02-03T00:39:30.975Z,3.83
2018-02-03T00:40:31.003Z,3.83
2018-02-03T00:41:31.034Z,3.86
2018-02-03T00:42:31.064Z,3.87
2018-02-03T00:43:31.092Z,3.87
2018-02-03T00:44:31.121Z,3.84
2018-02-03T00:45:31.159Z,3.90
2018-02-03T00:46:31.193Z,3.87
2018-02-03T00:47:31.212Z,3.84
2018-02-03T00:48:31.245Z,3.78
2018-02-03T00:49:31.596Z,3.86
2018-02-03T00:50:31.300Z,3.83
2018-02-03T00:51:31.334Z,3.80
2018-02-03T00:52:31.361Z,3.83
2018-02-03T00:53:31.393Z,3.78
2018-02-03T00:54:31.422Z,3.84
2018-02-03T00:55:31.457Z,3.83
2018-02-03T00:56:31.485Z,3.90
2018-02-03T00:57:31.515Z,3.93
2018-02-03T00:58:31.540Z,3.87
2018-02-03T00:59:31.576Z,3.84
2018-02-03T01:00:31.610Z,3.80
2018-02-03T01:01:31.685Z,3.75
2018-02-03T01:02:31.665Z,3.76
2018-02-03T01:03:31.709Z,3.76
2018-02-03T01:04:31.724Z,3.69
2018-02-03T01:05:31.749Z,3.68
2018-02-03T01:06:31.786Z,3.66
2018-02-03T01:07:31.819Z,3.54
2018-02-03T01:08:31.915Z,3.62
2018-02-03T01:09:31.871Z,3.51
2018-02-03T01:10:31.902Z,3.48
2018-02-03T01:11:31.934Z,3.66
2018-02-03T01:12:31.961Z,3.65
2018-02-03T01:13:31.992Z,3.72
2018-02-03T01:14:32.022Z,3.73
2018-02-03T01:15:32.053Z,3.78
2018-02-03T01:16:32.082Z,3.73
2018-02-03T01:17:32.112Z,3.84
2018-02-03T01:18:32.142Z,3.75
2018-02-03T01:19:32.180Z,3.90
2018-02-03T01:20:32.202Z,3.76
2018-02-03T01:21:32.239Z,3.76
2018-02-03T01:22:32.260Z,3.79
2018-02-03T01:23:32.290Z,3.73
2018-02-03T01:24:32.324Z,3.78
2018-02-03T01:25:32.371Z,3.69
2018-02-03T01:26:32.381Z,3.66
2018-02-03T01:27:32.410Z,3.57
2018-02-03T01:28:32.443Z,3.57
2018-02-03T01:29:32.476Z,3.58
2018-02-03T01:30:32.501Z,3.52
2018-02-03T01:31:32.535Z,3.54
2018-02-03T01:32:32.877Z,3.61
2018-02-03T01:33:32.589Z,3.69
2018-02-03T01:34:32.622Z,3.68
2018-02-03T01:35:32.649Z,3.83
2018-02-03T01:36:32.683Z,3.76
2018-02-03T01:37:32.711Z,3.79
2018-02-03T01:38:32.739Z,3.88
2018-02-03T01:39:32.772Z,3.96
2018-02-03T01:40:32.801Z,3.87
2018-02-03T01:41:32.830Z,3.88
2018-02-03T01:42:32.878Z,3.88
2018-02-03T01:43:32.890Z,3.93
2018-02-03T01:44:32.934Z,3.86
2018-02-03T01:45:32.950Z,3.86
2018-02-03T01:46:32.981Z,3.88
2018-02-03T01:47:33.013Z,3.84
2018-02-03T01:48:33.041Z,3.86
2018-02-03T01:49:33.071Z,3.84
2018-02-03T01:50:33.101Z,3.86
2018-02-03T01:51:33.133Z,3.88
2018-02-03T01:52:33.161Z,3.80
2018-02-03T01:53:33.196Z,3.87
2018-02-03T01:54:33.221Z,3.86
2018-02-03T01:55:33.251Z,3.88
2018-02-03T01:56:33.339Z,3.90
2018-02-03T01:57:33.368Z,3.93
2018-02-03T01:58:33.342Z,3.87
2018-02-03T01:59:33.373Z,3.87
2018-02-03T02:00:33.414Z,3.84
2018-02-03T02:01:33.435Z,3.86
2018-02-03T02:02:33.459Z,3.80
2018-02-03T02:03:33.493Z,3.87
2018-02-03T02:04:33.519Z,3.69
2018-02-03T02:05:33.605Z,3.78
2018-02-03T02:06:33.584Z,3.78
2018-02-03T02:07:33.609Z,3.90
2018-02-03T02:08:33.746Z,3.72
2018-02-03T02:09:33.669Z,3.84
2018-02-03T02:10:33.699Z,3.83
2018-02-03T02:11:33.730Z,3.78
2018-02-03T02:12:33.773Z,3.87
2018-02-03T02:13:33.790Z,3.84
2018-02-03T02:14:33.820Z,3.84
2018-02-03T02:15:33.850Z,3.84
2018-02-03T02:16:33.885Z,3.88
2018-02-03T02:17:33.910Z,3.90
2018-02-03T02:18:34.045Z,3.97
2018-02-03T02:19:33.970Z,3.91
2018-02-03T02:20:33.999Z,3.90
2018-02-03T02:21:34.031Z,3.84
2018-02-03T02:22:34.060Z,3.96
2018-02-03T02:23:34.092Z,3.84
2018-02-03T02:24:34.120Z,3.93
2018-02-03T02:25:34.155Z,3.97
2018-02-03T02:26:34.178Z,4.00
2018-02-03T02:27:34.208Z,4.05
2018-02-03T02:28:34.238Z,4.05
2018-02-03T02:29:34.269Z,4.04
2018-02-03T02:30:34.298Z,3.97
2018-02-03T02:31:34.330Z,4.02
2018-02-03T02:32:34.359Z,3.96
2018-02-03T02:33:34.390Z,3.91
2018-02-03T02:34:34.482Z,3.96
2018-02-03T02:35:34.450Z,3.97
2018-02-03T02:36:34.479Z,4.02
2018-02-03T02:37:34.510Z,4.05
2018-02-03T02:38:34.539Z,4.09
2018-02-03T02:39:34.571Z,4.15
2018-02-03T02:40:34.599Z,4.15
2018-02-03T02:41:34.631Z,4.16
2018-02-03T02:42:34.660Z,4.06
2018-02-03T02:43:34.690Z,4.02
2018-02-03T02:44:34.721Z,4.06
2018-02-03T02:45:34.749Z,4.11
2018-02-03T02:46:34.781Z,4.14
2018-02-03T02:47:34.811Z,4.09
2018-02-03T02:48:34.841Z,4.11
2018-02-03T02:49:34.872Z,4.14
2018-02-03T02:50:34.901Z,4.11
2018-02-03T02:51:34.932Z,4.12
2018-02-03T02:52:34.962Z,4.16
2018-02-03T02:53:34.990Z,4.12
2018-02-03T02:54:35.023Z,4.18
2018-02-03T02:55:35.051Z,4.20
2018-02-03T02:56:35.083Z,4.22
2018-02-03T02:57:35.113Z,4.26
2018-02-03T02:58:35.141Z,4.32
2018-02-03T02:59:35.172Z,4.33
2018-02-03T03:00:35.203Z,4.29
2018-02-03T03:01:35.284Z,4.32
2018-02-03T03:02:35.259Z,4.23
2018-02-03T03:03:35.291Z,4.11
2018-02-03T03:04:35.331Z,4.06
2018-02-03T03:05:35.350Z,4.02
2018-02-03T03:06:35.383Z,3.94
2018-02-03T03:07:35.410Z,3.93
2018-02-03T03:08:35.526Z,3.91
2018-02-03T03:09:35.471Z,3.96
2018-02-03T03:10:35.500Z,3.97
2018-02-03T03:11:35.531Z,4.02
2018-02-03T03:12:35.564Z,4.00
2018-02-03T03:13:35.595Z,4.11
2018-02-03T03:14:35.620Z,4.08
2018-02-03T03:15:35.651Z,4.02
2018-02-03T03:16:35.681Z,3.97
2018-02-03T03:17:35.711Z,4.11
2018-02-03T03:18:35.762Z,4.06
2018-02-03T03:19:35.771Z,4.15
2018-02-03T03:20:35.801Z,4.09
2018-02-03T03:21:35.832Z,4.15
2018-02-03T03:22:35.862Z,4.14
2018-02-03T03:23:35.892Z,4.08
2018-02-03T03:24:35.924Z,3.97
2018-02-03T03:25:36.336Z,4.04
2018-02-03T03:26:35.990Z,4.06
2018-02-03T03:27:36.014Z,4.04
2018-02-03T03:28:36.045Z,4.04
2018-02-03T03:29:36.085Z,4.04
2018-02-03T03:30:36.103Z,4.04
2018-02-03T03:31:36.134Z,3.88
2018-02-03T03:32:36.164Z,3.88
2018-02-03T03:33:36.194Z,3.91
2018-02-03T03:34:36.225Z,3.90
2018-02-03T03:35:36.254Z,3.86
2018-02-03T03:36:36.290Z,3.96
2018-02-03T03:37:36.399Z,3.93
2018-02-03T03:38:36.348Z,4.02
2018-02-03T03:39:36.374Z,4.02
2018-02-03T03:40:36.405Z,4.02
2018-02-03T03:41:36.435Z,3.94
2018-02-03T03:42:36.464Z,3.83
2018-02-03T03:43:36.500Z,3.87
2018-02-03T03:44:36.585Z,3.84
2018-02-03T03:45:36.569Z,3.86
2018-02-03T03:46:36.585Z,3.93
2018-02-03T03:47:36.615Z,3.98
2018-02-03T03:48:36.644Z,3.94
2018-02-03T03:49:36.676Z,4.04
2018-02-03T03:50:36.705Z,4.05
2018-02-03T03:51:36.736Z,3.97
2018-02-03T03:52:36.775Z,4.08
2018-02-03T03:53:36.796Z,4.08
2018-02-03T03:54:36.825Z,4.02
2018-02-03T03:55:36.856Z,4.08
2018-02-03T03:56:36.886Z,4.05
2018-02-03T03:57:36.915Z,4.14
2018-02-03T03:58:36.947Z,3.97
2018-02-03T03:59:36.976Z,4.00
2018-02-03T04:00:37.025Z,3.98
2018-02-03T04:01:37.037Z,3.96
2018-02-03T04:02:37.062Z,3.96
2018-02-03T04:03:37.092Z,4.00
2018-02-03T04:04:37.123Z,4.14
2018-02-03T04:05:37.156Z,4.04
2018-02-03T04:06:37.198Z,4.08
2018-02-03T04:07:37.213Z,3.97
2018-02-03T04:08:37.334Z,4.04
2018-02-03T04:09:37.274Z,4.06
2018-02-03T04:10:37.309Z,4.04
2018-02-03T04:11:37.339Z,4.05
2018-02-03T04:12:37.369Z,4.00
2018-02-03T04:13:37.400Z,4.06
2018-02-03T04:14:37.423Z,4.06
2018-02-03T04:15:37.455Z,3.98
2018-02-03T04:16:37.494Z,4.04
2018-02-03T04:17:37.520Z,4.02
2018-02-03T04:18:37.549Z,4.06
2018-02-03T04:19:37.578Z,4.00
2018-02-03T04:20:37.605Z,4.05
2018-02-03T04:21:37.640Z,4.00
2018-02-03T04:22:37.666Z,3.97
2018-02-03T04:23:37.699Z,3.90
2018-02-03T04:24:37.743Z,3.97
2018-02-03T04:25:37.763Z,3.87
2018-02-03T04:26:37.783Z,3.90
2018-02-03T04:27:37.821Z,3.91
2018-02-03T04:28:37.851Z,3.90
2018-02-03T04:29:37.875Z,3.86
2018-02-03T04:30:37.910Z,3.90
2018-02-03T04:31:37.955Z,3.84
2018-02-03T04:32:37.972Z,3.93
2018-02-03T04:33:38.001Z,3.93
2018-02-03T04:34:38.038Z,3.96
2018-02-03T04:35:38.064Z,3.98
2018-02-03T04:36:38.094Z,4.00
2018-02-03T04:37:38.133Z,4.04
2018-02-03T04:38:38.152Z,3.86
2018-02-03T04:39:38.182Z,3.88
2018-02-03T04:40:38.213Z,3.96
2018-02-03T04:41:38.242Z,3.84
2018-02-03T04:42:38.271Z,3.84
2018-02-03T04:43:38.303Z,3.87
2018-02-03T04:44:38.401Z,3.93
2018-02-03T04:45:38.363Z,3.88
2018-02-03T04:46:38.394Z,4.00
2018-02-03T04:47:38.422Z,3.90
2018-02-03T04:48:38.454Z,3.98
2018-02-03T04:49:38.483Z,3.96
2018-02-03T04:50:38.526Z,4.04
2018-02-03T04:51:38.544Z,3.93
2018-02-03T04:52:38.574Z,4.04
2018-02-03T04:53:38.604Z,3.94
2018-02-03T04:54:38.634Z,3.98
2018-02-03T04:55:38.665Z,3.93
2018-02-03T04:56:38.694Z,3.98
2018-02-03T04:57:38.724Z,4.00
2018-02-03T04:58:38.754Z,3.88
2018-02-03T04:59:38.785Z,3.98
2018-02-03T05:00:38.868Z,3.98
2018-02-03T05:01:38.845Z,4.00
2018-02-03T05:02:38.874Z,3.94
2018-02-03T05:03:38.905Z,3.88
2018-02-03T05:04:38.934Z,3.86
2018-02-03T05:05:38.966Z,3.86
2018-02-03T05:06:38.994Z,3.83
2018-02-03T05:07:39.031Z,3.87
2018-02-03T05:08:39.068Z,3.86
2018-02-03T05:09:39.086Z,3.91
2018-02-03T05:10:39.116Z,3.80
2018-02-03T05:11:39.145Z,3.73
2018-02-03T05:12:39.174Z,3.84
2018-02-03T05:13:39.205Z,3.86
2018-02-03T05:14:39.237Z,3.72
2018-02-03T05:15:39.266Z,3.75
2018-02-03T05:16:39.297Z,3.78
2018-02-03T05:17:39.326Z,3.70
2018-02-03T05:18:39.356Z,3.73
2018-02-03T05:19:39.389Z,3.66
2018-02-03T05:20:39.416Z,3.69
2018-02-03T05:21:39.447Z,3.65
2018-02-03T05:22:39.476Z,3.66
2018-02-03T05:23:39.506Z,3.65
2018-02-03T05:24:39.535Z,3.70
2018-02-03T05:25:39.563Z,3.66
2018-02-03T05:26:39.596Z,3.57
2018-02-03T05:27:39.701Z,3.66
2018-02-03T05:28:39.658Z,3.68
2018-02-03T05:29:39.683Z,3.54
2018-02-03T05:30:39.713Z,3.51
2018-02-03T05:31:39.743Z,3.54
2018-02-03T05:32:39.778Z,3.52
2018-02-03T05:33:39.803Z,3.55
2018-02-03T05:34:39.833Z,3.52
2018-02-03T05:35:39.864Z,3.43
2018-02-03T05:36:39.894Z,3.42
2018-02-03T05:37:39.924Z,3.47
2018-02-03T05:38:39.951Z,3.50
2018-02-03T05:39:39.985Z,3.55
2018-02-03T05:40:40.011Z,3.40
2018-02-03T05:41:40.045Z,3.40
2018-02-03T05:42:40.082Z,3.43
2018-02-03T05:43:40.100Z,3.51
2018-02-03T05:44:40.168Z,3.33
2018-02-03T05:45:40.159Z,3.45
2018-02-03T05:46:40.189Z,3.47
2018-02-03T05:47:40.223Z,3.32
2018-02-03T05:48:40.250Z,3.33
2018-02-03T05:49:40.340Z,3.28
2018-02-03T05:50:40.311Z,3.31
2018-02-03T05:51:40.348Z,3.15
2018-02-03T05:52:40.370Z,3.17
2018-02-03T05:53:40.394Z,3.24
2018-02-03T05:54:40.440Z,3.17
2018-02-03T05:55:40.455Z,3.14
2018-02-03T05:56:40.485Z,3.17
2018-02-03T05:57:40.514Z,3.08
2018-02-03T05:58:40.544Z,3.03
2018-02-03T05:59:40.574Z,2.99
2018-02-03T06:00:40.600Z,3.02
2018-02-03T06:01:40.684Z,3.02
2018-02-03T06:02:40.661Z,3.10
2018-02-03T06:03:40.703Z,3.11
2018-02-03T06:04:40.723Z,3.08
2018-02-03T06:05:40.752Z,3.06
2018-02-03T06:06:40.783Z,3.00
2018-02-03T06:07:40.808Z,3.02
2018-02-03T06:08:40.909Z,2.93
2018-02-03T06:09:40.881Z,2.85
2018-02-03T06:10:40.898Z,2.95
2018-02-03T06:11:40.926Z,2.99
2018-02-03T06:12:40.956Z,2.81
2018-02-03T06:13:41.044Z,2.84
2018-02-03T06:14:41.012Z,2.84
2018-02-03T06:15:41.043Z,2.78
2018-02-03T06:16:41.073Z,2.77
2018-02-03T06:17:41.104Z,2.85
2018-02-03T06:18:41.135Z,2.78
2018-02-03T06:19:41.182Z,2.74
2018-02-03T06:21:41.225Z,2.75
2018-02-03T06:22:41.247Z,2.75
2018-02-03T06:23:41.289Z,2.69
2018-02-03T06:24:41.307Z,2.67
2018-02-03T06:25:41.335Z,2.61
2018-02-03T06:26:41.364Z,2.56
2018-02-03T06:27:41.402Z,2.53
2018-02-03T06:28:41.436Z,2.60
2018-02-03T06:29:41.450Z,2.45
2018-02-03T06:30:41.483Z,2.52
2018-02-03T06:31:41.510Z,2.54
2018-02-03T06:32:41.548Z,2.57
2018-02-03T06:33:41.567Z,2.48
2018-02-03T06:34:41.597Z,2.43
2018-02-03T06:35:41.628Z,2.34
2018-02-03T06:36:41.703Z,2.30
2018-02-03T06:37:42.004Z,2.35
2018-02-03T06:38:41.717Z,2.28
2018-02-03T06:39:41.745Z,2.28
2018-02-03T06:40:41.775Z,2.28
2018-02-03T06:41:41.801Z,2.28
2018-02-03T06:42:41.837Z,2.25
2018-02-03T06:43:41.861Z,2.24
2018-02-03T06:44:41.894Z,2.20
2018-02-03T06:45:41.920Z,2.23
2018-02-03T06:46:41.948Z,2.20
2018-02-03T06:47:41.977Z,2.18
2018-02-03T06:48:42.007Z,2.24
2018-02-03T06:49:42.038Z,2.30
2018-02-03T06:50:42.122Z,2.30
2018-02-03T06:51:42.093Z,2.35
2018-02-03T06:52:42.124Z,2.27
2018-02-03T06:53:42.153Z,2.28
2018-02-03T06:54:42.207Z,2.34
2018-02-03T06:55:42.211Z,2.25
2018-02-03T06:56:42.443Z,2.38
2018-02-03T06:57:42.271Z,2.45
2018-02-03T06:58:42.301Z,2.42
2018-02-03T06:59:42.329Z,2.42
2018-02-03T07:00:42.358Z,2.42
2018-02-03T07:01:42.711Z,2.54
2018-02-03T07:02:42.419Z,2.66
2018-02-03T07:03:42.450Z,2.72
2018-02-03T07:04:42.475Z,2.75
2018-02-03T07:05:42.561Z,2.90
2018-02-03T07:06:42.531Z,2.81
2018-02-03T07:07:42.562Z,2.93
2018-02-03T07:08:42.595Z,2.95
2018-02-03T07:09:42.636Z,3.03
2018-02-03T07:10:42.650Z,2.99
2018-02-03T07:11:42.679Z,2.97
2018-02-03T07:12:42.709Z,2.96
2018-02-03T07:13:42.792Z,3.06
2018-02-03T07:14:42.772Z,3.03
2018-02-03T07:15:42.803Z,3.11
2018-02-03T07:16:42.826Z,3.05
2018-02-03T07:17:42.858Z,3.05
2018-02-03T07:18:42.883Z,3.11
2018-02-03T07:19:42.928Z,3.08
2018-02-03T07:20:42.971Z,3.15
2018-02-03T07:21:42.986Z,3.15
2018-02-03T07:22:43.002Z,3.18
2018-02-03T07:23:43.033Z,3.23
2018-02-03T07:24:43.062Z,3.20
2018-02-03T07:25:43.097Z,3.31
2018-02-03T07:26:43.124Z,3.32
2018-02-03T07:27:43.153Z,3.32
2018-02-03T07:28:43.183Z,3.32
2018-02-03T07:29:43.220Z,3.51
2018-02-03T07:30:43.237Z,3.50
2018-02-03T07:31:43.268Z,3.50
2018-02-03T07:32:43.298Z,3.50
2018-02-03T07:33:43.332Z,3.45
2018-02-03T07:34:43.359Z,3.55
2018-02-03T07:35:43.388Z,3.54
2018-02-03T07:36:43.415Z,3.61
2018-02-03T07:37:43.512Z,3.60
2018-02-03T07:38:43.477Z,3.54
2018-02-03T07:39:43.505Z,3.62
2018-02-03T07:40:43.534Z,3.65
2018-02-03T07:41:43.623Z,3.68
2018-02-03T07:42:43.595Z,3.69
2018-02-03T07:43:43.624Z,3.69
2018-02-03T07:44:43.984Z,3.72
2018-02-03T07:45:43.686Z,3.70
2018-02-03T07:46:43.715Z,3.73
2018-02-03T07:47:43.757Z,3.76
2018-02-03T07:48:43.776Z,3.75
2018-02-03T07:49:43.819Z,3.84
2018-02-03T07:50:43.835Z,3.87
2018-02-03T07:51:43.877Z,3.80
2018-02-03T07:52:43.895Z,3.86
2018-02-03T07:53:43.980Z,3.78
2018-02-03T07:54:43.960Z,3.80
2018-02-03T07:55:43.986Z,3.84
2018-02-03T07:56:44.016Z,3.84
2018-02-03T07:57:44.041Z,3.80
2018-02-03T07:58:44.075Z,3.83
2018-02-03T07:59:44.161Z,3.86
2018-02-03T08:00:44.132Z,3.87
2018-02-03T08:01:44.161Z,3.87
2018-02-03T08:02:44.191Z,3.91
2018-02-03T08:03:44.223Z,3.83
2018-02-03T08:04:44.260Z,3.96
2018-02-03T08:05:44.291Z,4.00
2018-02-03T08:06:44.311Z,4.00
2018-02-03T08:07:44.343Z,3.97
2018-02-03T08:08:44.374Z,4.05
2018-02-03T08:09:44.417Z,4.08
2018-02-03T08:10:44.432Z,4.05
2018-02-03T08:11:44.463Z,4.04
2018-02-03T08:12:44.501Z,4.00
2018-02-03T08:13:44.542Z,4.08
2018-02-03T08:14:44.554Z,4.04
2018-02-03T08:15:44.586Z,4.02
2018-02-03T08:16:44.615Z,4.02
2018-02-03T08:17:44.644Z,4.05
2018-02-03T08:18:44.676Z,4.04
2018-02-03T08:19:44.705Z,4.05
2018-02-03T08:20:44.831Z,4.04
2018-02-03T08:21:44.762Z,4.06
2018-02-03T08:22:44.793Z,3.98
2018-02-03T08:23:44.823Z,4.00
2018-02-03T08:24:44.855Z,3.97
2018-02-03T08:25:44.884Z,3.97
2018-02-03T08:26:44.914Z,3.93
2018-02-03T08:27:44.944Z,3.94
2018-02-03T08:28:44.975Z,3.87
2018-02-03T08:29:45.012Z,3.84
2018-02-03T08:30:45.049Z,3.91
2018-02-03T08:31:45.064Z,3.87
2018-02-03T08:32:45.097Z,3.86
2018-02-03T08:33:45.123Z,3.87
2018-02-03T08:34:45.157Z,3.88
2018-02-03T08:35:45.185Z,3.86
2018-02-03T08:36:45.229Z,3.86
2018-02-03T08:37:45.328Z,3.91
2018-02-03T08:38:45.273Z,3.86
2018-02-03T08:39:45.322Z,3.79
2018-02-03T08:40:45.344Z,3.86
2018-02-03T08:41:45.368Z,3.83
2018-02-03T08:42:45.397Z,3.80
2018-02-03T08:43:45.424Z,3.80
2018-02-03T08:44:45.784Z,3.86
2018-02-03T08:45:45.484Z,3.80
2018-02-03T08:46:45.514Z,3.76
2018-02-03T08:47:45.544Z,3.87
2018-02-03T08:48:45.575Z,3.83
2018-02-03T08:49:45.606Z,3.86
2018-02-03T08:50:45.884Z,3.79
2018-02-03T08:51:45.662Z,3.86
2018-02-03T08:52:45.695Z,3.86
2018-02-03T08:53:45.724Z,3.90
2018-02-03T08:54:45.756Z,3.91
2018-02-03T08:55:45.784Z,3.84
2018-02-03T08:56:45.818Z,3.88
2018-02-03T08:57:45.868Z,3.94
2018-02-03T08:58:45.874Z,4.02
2018-02-03T08:59:45.905Z,4.02
2018-02-03T09:00:45.935Z,4.04
2018-02-03T09:01:45.964Z,3.97
2018-02-03T09:02:45.994Z,4.12
2018-02-03T09:03:46.025Z,4.12
2018-02-03T09:04:46.054Z,4.18
2018-02-03T09:05:46.083Z,4.32
2018-02-03T09:06:46.114Z,4.29
2018-02-03T09:07:46.152Z,4.33
2018-02-03T09:08:46.173Z,4.41
2018-02-03T09:09:46.209Z,4.50
2018-02-03T09:10:46.232Z,4.48
2018-02-03T09:11:46.265Z,4.52
2018-02-03T09:12:46.295Z,4.55
2018-02-03T09:13:46.415Z,4.51
2018-02-03T09:14:46.356Z,4.67
2018-02-03T09:15:46.386Z,4.69
2018-02-03T09:16:46.415Z,4.66
2018-02-03T09:17:46.445Z,4.73
2018-02-03T09:18:46.489Z,4.82
2018-02-03T09:19:46.565Z,4.80
2018-02-03T09:20:46.590Z,4.77
2018-02-03T09:21:46.566Z,4.85
2018-02-03T09:22:46.610Z,4.86
2018-02-03T09:23:46.627Z,4.94
2018-02-03T09:24:46.656Z,4.97
2018-02-03T09:25:46.689Z,5.00
2018-02-03T09:26:46.719Z,4.97
2018-02-03T09:27:46.749Z,4.99
2018-02-03T09:28:46.780Z,4.99
2018-02-03T09:29:46.810Z,4.88
2018-02-03T09:30:46.841Z,4.96
2018-02-03T09:31:46.922Z,4.99
2018-02-03T09:32:47.386Z,4.88
2018-02-03T09:33:47.279Z,4.96
2018-02-03T09:34:46.979Z,5.02
2018-02-03T09:35:46.994Z,5.02
2018-02-03T09:36:47.029Z,5.04
2018-02-03T09:37:47.069Z,5.09
2018-02-03T09:38:47.090Z,5.12
2018-02-03T09:39:47.118Z,5.21
2018-02-03T09:40:47.149Z,5.10
2018-02-03T09:41:47.179Z,4.99
2018-02-03T09:42:47.208Z,4.99
2018-02-03T09:43:47.239Z,5.07
2018-02-03T09:44:47.352Z,5.03
2018-02-03T09:45:47.299Z,5.03
2018-02-03T09:46:47.332Z,4.99
2018-02-03T09:47:47.370Z,4.84
2018-02-03T09:48:47.393Z,4.91
2018-02-03T09:49:47.444Z,4.82
2018-02-03T09:50:47.473Z,4.78
2018-02-03T09:51:47.485Z,4.82
2018-02-03T09:53:47.969Z,4.86
2018-02-03T09:54:47.577Z,4.84
2018-02-03T09:55:47.624Z,4.92
2018-02-03T09:56:47.790Z,4.78
2018-02-03T09:57:47.671Z,4.75
2018-02-03T09:58:47.904Z,4.75
2018-02-03T09:59:47.732Z,4.75
2018-02-03T10:00:47.764Z,4.54
2018-02-03T10:01:47.829Z,4.60
2018-02-03T10:02:47.825Z,4.51
2018-02-03T10:03:47.854Z,4.50
2018-02-03T10:04:47.889Z,4.54
2018-02-03T10:05:47.922Z,4.54
2018-02-03T10:06:47.967Z,4.60
2018-02-03T10:07:47.996Z,4.67
2018-02-03T10:08:48.037Z,4.78
2018-02-03T10:09:48.038Z,4.73
2018-02-03T10:10:48.085Z,4.89
2018-02-03T10:11:48.103Z,4.94
2018-02-03T10:12:48.134Z,4.92
2018-02-03T10:13:48.214Z,5.03
2018-02-03T10:14:48.393Z,5.09
2018-02-03T10:15:48.222Z,5.10
2018-02-03T10:16:48.254Z,5.04
2018-02-03T10:17:48.285Z,5.09
2018-02-03T10:18:48.335Z,5.07
2018-02-03T10:19:48.351Z,5.10
2018-02-03T10:20:48.732Z,5.04
2018-02-03T10:21:48.410Z,4.96
2018-02-03T10:22:48.437Z,4.78
2018-02-03T10:23:48.482Z,4.73
2018-02-03T10:24:48.504Z,4.65
2018-02-03T10:25:48.529Z,4.77
2018-02-03T10:26:48.559Z,4.72
2018-02-03T10:27:48.602Z,4.82
2018-02-03T10:28:48.639Z,4.73
2018-02-03T10:29:48.657Z,4.65
2018-02-03T10:30:48.698Z,4.67
2018-02-03T10:31:48.715Z,4.65
2018-02-03T10:32:48.745Z,4.65
2018-02-03T10:33:48.775Z,4.51
2018-02-03T10:35:48.835Z,4.51
2018-02-03T10:36:48.869Z,4.54
2018-02-03T10:37:48.901Z,4.50
2018-02-03T10:38:48.984Z,4.60
2018-02-03T10:39:48.959Z,4.59
2018-02-03T10:40:48.989Z,4.59
2018-02-03T10:41:49.021Z,4.51
2018-02-03T10:42:49.050Z,4.52
2018-02-03T10:43:49.081Z,4.70
2018-02-03T10:44:49.111Z,4.63
2018-02-03T10:45:49.146Z,4.69
2018-02-03T10:46:49.177Z,4.67
2018-02-03T10:47:49.207Z,4.80
2018-02-03T10:48:49.238Z,4.80
2018-02-03T10:49:49.337Z,4.80
2018-02-03T10:50:49.298Z,4.91
2018-02-03T10:51:49.327Z,4.91
2018-02-03T10:52:49.419Z,4.92
2018-02-03T10:53:49.388Z,4.86
2018-02-03T10:54:49.417Z,4.91
2018-02-03T10:55:49.651Z,5.04
2018-02-03T10:56:49.714Z,5.02
2018-02-03T10:57:49.512Z,5.04
2018-02-03T10:58:49.544Z,5.10
2018-02-03T10:59:49.616Z,5.18
2018-02-03T11:00:49.602Z,5.06
2018-02-03T11:01:49.633Z,5.21
2018-02-03T11:02:49.674Z,5.25
2018-02-03T11:03:49.695Z,5.21
2018-02-03T11:04:49.732Z,5.21
2018-02-03T11:05:49.813Z,5.17
2018-02-03T11:06:49.859Z,5.31
2018-02-03T11:07:49.821Z,5.45
2018-02-03T11:08:49.850Z,5.33
2018-02-03T11:09:49.881Z,5.42
2018-02-03T11:10:49.918Z,5.54
2018-02-03T11:11:49.940Z,5.56
2018-02-03T11:12:49.977Z,5.43
2018-02-03T11:13:50.001Z,5.54
2018-02-03T11:14:50.033Z,5.51
2018-02-03T11:15:50.083Z,5.33
2018-02-03T11:16:50.097Z,5.20
2018-02-03T11:17:50.128Z,5.33
2018-02-03T11:18:50.156Z,5.27
2018-02-03T11:19:50.206Z,5.33
2018-02-03T11:20:50.221Z,5.35
2018-02-03T11:21:50.251Z,5.42
2018-02-03T11:22:50.281Z,5.28
2018-02-03T11:23:50.328Z,5.38
2018-02-03T11:24:50.342Z,5.31
2018-02-03T11:25:50.397Z,5.49
2018-02-03T11:26:50.404Z,5.25
2018-02-03T11:27:50.435Z,5.30
2018-02-03T11:28:50.468Z,5.20
2018-02-03T11:29:50.506Z,5.42
2018-02-03T11:30:50.529Z,5.46
2018-02-03T11:31:50.558Z,5.42
2018-02-03T11:32:50.600Z,5.48
2018-02-03T11:33:50.622Z,5.53
2018-02-03T11:34:50.653Z,5.65
2018-02-03T11:35:50.899Z,5.63
2018-02-03T11:36:50.717Z,5.75
2018-02-03T11:37:50.755Z,5.79
2018-02-03T11:38:50.778Z,5.82
2018-02-03T11:39:50.810Z,5.85
2018-02-03T11:40:50.856Z,5.90
2018-02-03T11:41:50.869Z,5.97
2018-02-03T11:42:50.954Z,6.00
2018-02-03T11:43:50.934Z,5.91
2018-02-03T11:44:50.970Z,5.99
2018-02-03T11:45:50.998Z,5.91
2018-02-03T11:46:51.036Z,6.11
2018-02-03T11:47:51.059Z,6.12
2018-02-03T11:48:51.095Z,6.09
2018-02-03T11:49:51.152Z,6.18
2018-02-03T11:50:51.151Z,6.22
2018-02-03T11:51:51.245Z,6.12
2018-02-03T11:52:51.216Z,6.25
2018-02-03T11:53:51.452Z,6.17
2018-02-03T11:54:51.277Z,6.18
2018-02-03T11:55:51.510Z,6.18
2018-02-03T11:57:51.371Z,6.19
2018-02-03T11:58:51.406Z,6.19
2018-02-03T11:59:51.438Z,6.19
2018-02-03T12:00:51.466Z,6.27
2018-02-03T12:01:51.499Z,6.21
2018-02-03T12:02:51.541Z,6.21
2018-02-03T12:03:51.562Z,6.27
2018-02-03T12:04:51.593Z,6.34
2018-02-03T12:05:51.635Z,6.18
2018-02-03T12:06:51.715Z,6.17
2018-02-03T12:07:51.687Z,6.08
2018-02-03T12:08:51.724Z,5.97
2018-02-03T12:11:51.819Z,6.08
2018-02-03T12:12:51.850Z,6.09
2018-02-03T12:13:51.885Z,5.93
2018-02-03T12:14:51.911Z,6.04
2018-02-03T12:15:51.942Z,5.97
2018-02-03T12:16:51.976Z,5.91
2018-02-03T12:17:52.003Z,5.83
2018-02-03T12:18:52.109Z,5.86
2018-02-03T12:19:52.069Z,5.86
2018-02-03T12:20:52.099Z,5.79
2018-02-03T12:21:52.190Z,5.67
2018-02-03T12:22:52.164Z,5.75
2018-02-03T12:23:52.203Z,5.76
2018-02-03T12:24:52.430Z,5.82
2018-02-03T12:25:52.257Z,5.83
2018-02-03T12:26:52.489Z,5.86
2018-02-03T12:27:52.320Z,5.89
2018-02-03T12:28:52.360Z,5.96
2018-02-03T12:29:52.387Z,5.93
2018-02-03T12:30:52.414Z,5.96
2018-02-03T12:31:52.444Z,6.00
2018-02-03T12:32:52.481Z,6.04
2018-02-03T12:33:52.510Z,6.14
2018-02-03T12:34:52.543Z,6.09
2018-02-03T12:35:52.644Z,6.12
2018-02-03T12:36:52.604Z,6.17
2018-02-03T12:37:52.635Z,6.21
2018-02-03T12:38:52.665Z,6.27
2018-02-03T12:39:52.696Z,6.22
2018-02-03T12:40:52.791Z,6.25
2018-02-03T12:41:52.762Z,6.31
2018-02-03T12:42:52.860Z,6.30
2018-02-03T12:43:52.824Z,6.46
2018-02-03T12:44:52.906Z,6.48
2018-02-03T12:45:53.094Z,6.48
2018-02-03T12:46:52.987Z,6.55
2018-02-03T12:47:53.009Z,6.49
2018-02-03T12:48:52.983Z,6.55
2018-02-03T12:49:53.015Z,6.56
2018-02-03T12:50:53.051Z,6.59
2018-02-03T12:51:53.078Z,6.51
2018-02-03T12:52:53.113Z,6.44
2018-02-03T12:53:53.144Z,6.51
2018-02-03T12:54:53.175Z,6.56
2018-02-03T12:55:53.218Z,6.49
2018-02-03T12:56:53.237Z,6.51
2018-02-03T12:57:53.270Z,6.51
2018-02-03T12:58:53.307Z,6.48
2018-02-03T12:59:53.335Z,6.55
2018-02-03T13:00:53.364Z,6.56
2018-02-03T13:01:53.398Z,6.58
2018-02-03T13:02:53.635Z,6.64
2018-02-03T13:03:53.466Z,6.74
2018-02-03T13:04:53.500Z,6.79
2018-02-03T13:05:53.523Z,6.71
2018-02-03T13:06:53.558Z,6.76
2018-02-03T13:07:53.587Z,6.71
2018-02-03T13:08:53.620Z,6.69
2018-02-03T13:09:53.651Z,6.76
2018-02-03T13:10:53.686Z,6.70
2018-02-03T13:11:53.785Z,6.69
2018-02-03T13:12:53.752Z,6.67
2018-02-03T13:13:53.781Z,6.73
2018-02-03T13:14:53.811Z,6.76
2018-02-03T13:15:53.845Z,6.74
2018-02-03T13:16:53.879Z,6.79
2018-02-03T13:17:53.909Z,6.88
2018-02-03T13:19:53.977Z,6.84
2018-02-03T13:20:54.009Z,6.80
2018-02-03T13:21:54.039Z,6.79
2018-02-03T13:22:54.072Z,6.87
2018-02-03T13:23:54.118Z,6.87
2018-02-03T13:24:54.143Z,6.76
2018-02-03T13:25:54.171Z,6.69